Time;durP1;ratioP1;P1;durP2;ratioP2;P2;SDS_P1;SDS_P2;PMS_P1;PMS_P2;Temp;Humidity;BMP_temperature;BMP_pressure;BME280_temperature;BME280_humidity;BME280_pressure;Samples;Min_cycle;Max_cycle;Signal;HPM_P1;HPM_P2
2022/05/05 00:01:11;;;;;;;;;;;;;;;;;;4420050;32;20305;-76
2022/05/05 00:03:38;;;;;;;;;;;;;;;;;;4436644;32;20362;-76
2022/05/05 00:06:03;;;;;;;;;;;;;;;;;;4436665;32;19988;-77
2022/05/05 00:08:30;;;;;;;;;;;;;;;;;;4437085;32;20224;-76
2022/05/05 00:16:23;;;;;;;;;;;;;;;;;;4436719;32;19968;-76
2022/05/05 00:18:49;;;;;;;;;;;;;;;;;;4436183;32;19936;-76
2022/05/05 00:21:15;;;;;;;;;;;;;;;;;;4436380;32;19937;-76
2022/05/05 00:23:40;;;;;;;;;;;;;;;;;;4436501;32;19941;-76
2022/05/05 00:26:05;;;;;;;;;;;;;;;;;;4435975;32;19940;-76
2022/05/05 00:28:30;;;;;;;;;;;;;;;;;;4430914;32;19998;-76
2022/05/05 00:31:04;;;;;;;;;;;;;;;;;;4450240;32;19966;-75
2022/05/05 00:33:30;;;;;;;;;;;;;;;;;;4436940;32;19959;-76
2022/05/05 00:35:55;;;;;;;;;;;;;;;;;;4436040;32;20261;-76
2022/05/05 00:38:23;;;;;;;;;;;;;;;;;;4437768;32;20359;-76
2022/05/05 00:40:48;;;;;;;;;;;;;;;;;;4426071;32;19933;-77
2022/05/05 00:43:13;;;;;;;;;;;;;;;;;;4430993;32;20265;-76
2022/05/05 00:45:38;;;;;;;;;;;;;;;;;;4439866;32;19940;-76
2022/05/05 00:48:04;;;;;;;;;;;;;;;;;;4451895;32;19981;-76
2022/05/05 00:50:29;;;;;;;;;;;;;;;;;;4448377;32;20310;-76
2022/05/05 00:52:54;;;;;;;;;;;;;;;;;;4451826;32;19932;-76
2022/05/05 00:55:19;;;;;;;;;;;;;;;;;;4451710;32;19959;-76
2022/05/05 00:57:44;;;;;;;;;;;;;;;;;;4451670;32;20270;-75
2022/05/05 01:00:11;;;;;;;;;;;;;;;;;;4421924;32;19952;-76
2022/05/05 01:02:36;;;;;;;;;;;;;;;;;;4430005;32;19965;-76
2022/05/05 01:05:01;;;;;;;;;;;;;;;;;;4436409;32;19973;-76
2022/05/05 01:07:28;;;;;;;;;;;;;;;;;;4435748;32;19941;-76
2022/05/05 01:09:53;;;;;;;;;;;;;;;;;;4436146;32;20318;-76
2022/05/05 01:15:05;;;;;;;;;;;;;;;;;;4430686;32;19985;-74
2022/05/05 01:17:30;;;;;;;;;;;;;;;;;;4446402;32;20071;-76
2022/05/05 01:19:55;;;;;;;;;;;;;;;;;;4436164;32;19947;-76
2022/05/05 01:22:29;;;;;;;;;;;;;;;;;;4428322;32;19976;-75
2022/05/05 01:30:22;;;;;;;;;;;;;;;;;;4442375;32;19951;-76
2022/05/05 01:32:47;;;;;;;;;;;;;;;;;;4434047;32;19936;-76
2022/05/05 01:35:12;;;;;;;;;;;;;;;;;;4439560;32;19967;-76
2022/05/05 01:37:37;;;;;;;;;;;;;;;;;;4437793;32;19963;-75
2022/05/05 01:40:03;;;;;;;;;;;;;;;;;;4436418;32;19984;-76
2022/05/05 01:42:28;;;;;;;;;;;;;;;;;;4438957;32;19937;-76
2022/05/05 01:44:53;;;;;;;;;;;;;;;;;;4438578;32;19936;-76
2022/05/05 01:47:18;;;;;;;;;;;;;;;;;;4439011;32;19970;-76
2022/05/05 01:49:45;;;;;;;;;;;;;;;;;;4438924;32;20382;-76
2022/05/05 01:52:10;;;;;;;;;;;;;;;;;;4438614;32;19945;-76
2022/05/05 01:54:35;;;;;;;;;;;;;;;;;;4424102;32;19989;-75
2022/05/05 01:57:00;;;;;;;;;;;;;;;;;;4423237;32;19939;-76
2022/05/05 01:59:25;;;;;;;;;;;;;;;;;;4423305;32;19952;-76
2022/05/05 02:01:50;;;;;;;;;;;;;;;;;;4435082;32;20360;-76
2022/05/05 02:04:16;;;;;;;;;;;;;;;;;;4438620;32;19940;-76
2022/05/05 02:06:41;;;;;;;;;;;;;;;;;;4432157;32;19968;-76
2022/05/05 02:09:06;;;;;;;;;;;;;;;;;;4425406;32;19940;-75
2022/05/05 02:11:31;;;;;;;;;;;;;;;;;;4438141;32;19952;-76
2022/05/05 02:13:56;;;;;;;;;;;;;;;;;;4437651;32;20317;-76
2022/05/05 02:16:21;;;;;;;;;;;;;;;;;;4439071;32;20028;-76
2022/05/05 02:18:47;;;;;;;;;;;;;;;;;;4439389;32;19932;-76
2022/05/05 02:21:12;;;;;;;;;;;;;;;;;;4438216;32;20006;-76
2022/05/05 02:23:37;;;;;;;;;;;;;;;;;;4438461;32;19947;-76
2022/05/05 02:26:02;;;;;;;;;;;;;;;;;;4438404;32;19937;-76
2022/05/05 02:28:27;;;;;;;;;;;;;;;;;;4436575;32;19941;-76
2022/05/05 02:30:52;;;;;;;;;;;;;;;;;;4432046;32;19993;-76
2022/05/05 02:33:17;;;;;;;;;;;;;;;;;;4422843;32;20287;-76
2022/05/05 02:35:43;;;;;;;;;;;;;;;;;;4421701;32;19937;-76
2022/05/05 02:40:52;;;;;;;;;;;;;;;;;;4422183;32;19987;-76
2022/05/05 02:43:17;;;;;;;;;;;;;;;;;;4422200;32;19981;-76
2022/05/05 02:45:43;;;;;;;;;;;;;;;;;;4422132;32;19944;-76
2022/05/05 02:48:08;;;;;;;;;;;;;;;;;;4422473;32;20319;-76
2022/05/05 02:50:33;;;;;;;;;;;;;;;;;;4434891;32;19956;-77
2022/05/05 02:52:58;;;;;;;;;;;;;;;;;;4438233;32;20337;-76
2022/05/05 02:55:23;;;;;;;;;;;;;;;;;;4437844;32;19941;-76
2022/05/05 02:57:48;;;;;;;;;;;;;;;;;;4437302;32;19945;-76
2022/05/05 03:00:14;;;;;;;;;;;;;;;;;;4434109;32;19933;-76
2022/05/05 03:02:41;;;;;;;;;;;;;;;;;;4428120;32;19969;-76
2022/05/05 03:05:06;;;;;;;;;;;;;;;;;;4437550;32;19936;-76
2022/05/05 03:07:32;;;;;;;;;;;;;;;;;;4437699;32;20355;-76
2022/05/05 03:09:57;;;;;;;;;;;;;;;;;;4437417;32;19937;-76
2022/05/05 03:12:22;;;;;;;;;;;;;;;;;;4437586;32;19986;-76
2022/05/05 03:14:47;;;;;;;;;;;;;;;;;;4438346;32;19934;-76
2022/05/05 03:17:12;;;;;;;;;;;;;;;;;;4437139;32;20274;-76
2022/05/05 03:19:37;;;;;;;;;;;;;;;;;;4437478;32;19969;-76
2022/05/05 03:22:03;;;;;;;;;;;;;;;;;;4437067;32;19937;-76
2022/05/05 03:24:29;;;;;;;;;;;;;;;;;;4437362;32;19990;-76
2022/05/05 03:26:54;;;;;;;;;;;;;;;;;;4435770;32;19937;-76
2022/05/05 03:29:19;;;;;;;;;;;;;;;;;;4435848;32;19948;-76
2022/05/05 03:31:44;;;;;;;;;;;;;;;;;;4436058;32;19944;-76
2022/05/05 03:34:09;;;;;;;;;;;;;;;;;;4437085;32;19928;-75
2022/05/05 03:36:35;;;;;;;;;;;;;;;;;;4437073;32;19997;-76
2022/05/05 03:39:00;;;;;;;;;;;;;;;;;;4437230;32;19956;-77
2022/05/05 03:41:25;;;;;;;;;;;;;;;;;;4435880;32;20292;-76
2022/05/05 03:43:52;;;;;;;;;;;;;;;;;;4436879;32;19937;-75
2022/05/05 03:46:17;;;;;;;;;;;;;;;;;;4426765;32;19988;-75
2022/05/05 03:48:42;;;;;;;;;;;;;;;;;;4422844;32;20040;-76
2022/05/05 03:51:07;;;;;;;;;;;;;;;;;;4420629;32;19956;-77
2022/05/05 03:53:35;;;;;;;;;;;;;;;;;;4421745;32;20361;-77
2022/05/05 03:56:00;;;;;;;;;;;;;;;;;;4421063;32;20308;-75
2022/05/05 03:58:26;;;;;;;;;;;;;;;;;;4421340;32;19945;-75
2022/05/05 04:00:51;;;;;;;;;;;;;;;;;;4429321;32;20006;-76
2022/05/05 04:03:31;;;;;;;;;;;;;;;;;;4437502;32;20371;-75
2022/05/05 04:05:56;;;;;;;;;;;;;;;;;;4436859;32;19941;-74
2022/05/05 04:08:21;;;;;;;;;;;;;;;;;;4432922;32;19933;-75
2022/05/05 04:10:46;;;;;;;;;;;;;;;;;;4425851;32;19937;-76
2022/05/05 04:13:12;;;;;;;;;;;;;;;;;;4434639;32;20281;-76
2022/05/05 04:15:37;;;;;;;;;;;;;;;;;;4420513;32;20015;-77
2022/05/05 04:18:02;;;;;;;;;;;;;;;;;;4421787;32;19951;-76
2022/05/05 04:20:27;;;;;;;;;;;;;;;;;;4424905;32;19933;-76
2022/05/05 04:22:52;;;;;;;;;;;;;;;;;;4436098;32;19944;-76
2022/05/05 04:25:18;;;;;;;;;;;;;;;;;;4436352;32;19944;-76
2022/05/05 04:27:43;;;;;;;;;;;;;;;;;;4436198;32;20284;-76
2022/05/05 04:30:08;;;;;;;;;;;;;;;;;;4425592;32;19936;-76
2022/05/05 04:32:33;;;;;;;;;;;;;;;;;;4434940;32;19940;-76
2022/05/05 04:34:58;;;;;;;;;;;;;;;;;;4436878;32;20311;-76
2022/05/05 04:37:23;;;;;;;;;;;;;;;;;;4438337;32;19932;-75
2022/05/05 04:39:51;;;;;;;;;;;;;;;;;;4436039;32;19974;-76
2022/05/05 04:42:16;;;;;;;;;;;;;;;;;;4435374;32;19980;-76
2022/05/05 04:44:41;;;;;;;;;;;;;;;;;;4436637;32;19997;-75
2022/05/05 04:47:06;;;;;;;;;;;;;;;;;;4434582;32;19941;-76
2022/05/05 04:49:31;;;;;;;;;;;;;;;;;;4436603;32;19944;-72
2022/05/05 04:51:56;;;;;;;;;;;;;;;;;;4436167;32;19963;-75
2022/05/05 04:54:22;;;;;;;;;;;;;;;;;;4435756;32;19991;-76
2022/05/05 04:56:47;;;;;;;;;;;;;;;;;;4436368;32;19933;-76
2022/05/05 04:59:12;;;;;;;;;;;;;;;;;;4435877;32;19992;-75
2022/05/05 05:01:37;;;;;;;;;;;;;;;;;;4420934;32;19937;-76
2022/05/05 05:04:02;;;;;;;;;;;;;;;;;;4432960;32;19987;-74
2022/05/05 05:06:27;;;;;;;;;;;;;;;;;;4436892;32;20011;-76
2022/05/05 05:08:53;;;;;;;;;;;;;;;;;;4438850;32;19944;-76
2022/05/05 05:11:18;;;;;;;;;;;;;;;;;;4424369;32;19937;-76
2022/05/05 05:13:43;;;;;;;;;;;;;;;;;;4423960;32;19957;-75
2022/05/05 05:16:08;;;;;;;;;;;;;;;;;;4423749;32;20292;-76
2022/05/05 05:18:33;;;;;;;;;;;;;;;;;;4423279;32;19937;-77
2022/05/05 05:20:58;;;;;;;;;;;;;;;;;;4423816;32;19992;-76
2022/05/05 05:23:24;;;;;;;;;;;;;;;;;;4423475;32;19937;-76
2022/05/05 05:25:49;;;;;;;;;;;;;;;;;;4434555;32;19947;-73
2022/05/05 05:28:14;;;;;;;;;;;;;;;;;;4438878;32;19940;-76
2022/05/05 05:30:39;;;;;;;;;;;;;;;;;;4438235;32;20243;-77
2022/05/05 05:33:04;;;;;;;;;;;;;;;;;;4437659;32;19973;-77
2022/05/05 05:35:29;;;;;;;;;;;;;;;;;;4439236;32;19988;-77
2022/05/05 05:37:55;;;;;;;;;;;;;;;;;;4433369;32;20322;-76
2022/05/05 05:40:20;;;;;;;;;;;;;;;;;;4428597;32;19953;-75
2022/05/05 05:42:45;;;;;;;;;;;;;;;;;;4424498;32;19944;-75
2022/05/05 05:45:10;;;;;;;;;;;;;;;;;;4431121;32;20341;-76
2022/05/05 05:47:35;;;;;;;;;;;;;;;;;;4443322;32;19941;-74
2022/05/05 05:50:01;;;;;;;;;;;;;;;;;;4436914;32;20018;-75
2022/05/05 05:52:26;;;;;;;;;;;;;;;;;;4439057;32;20334;-74
2022/05/05 05:54:51;;;;;;;;;;;;;;;;;;4437142;32;20017;-76
2022/05/05 05:57:16;;;;;;;;;;;;;;;;;;4439021;32;19937;-75
2022/05/05 05:59:41;;;;;;;;;;;;;;;;;;4434713;32;19992;-74
2022/05/05 06:05:07;;;;;;;;;;;;;;;;;;4396223;32;19926;-75
2022/05/05 06:07:32;;;;;;;;;;;;;;;;;;4419442;32;19969;-76
2022/05/05 06:10:07;;;;;;;;;;;;;;;;;;4422433;32;19948;-76
2022/05/05 06:12:39;;;;;;;;;;;;;;;;;;4435583;32;19967;-75
2022/05/05 06:15:04;;;;;;;;;;;;;;;;;;4438082;32;19933;-77
2022/05/05 06:17:29;;;;;;;;;;;;;;;;;;4435395;32;19985;-75
2022/05/05 06:19:54;;;;;;;;;;;;;;;;;;4436745;32;20000;-74
2022/05/05 06:22:20;;;;;;;;;;;;;;;;;;4438960;32;19948;-75
2022/05/05 06:24:45;;;;;;;;;;;;;;;;;;4437884;32;19933;-75
2022/05/05 06:27:10;;;;;;;;;;;;;;;;;;4440078;32;19944;-75
2022/05/05 06:29:35;;;;;;;;;;;;;;;;;;4434719;32;19937;-75
2022/05/05 06:32:00;;;;;;;;;;;;;;;;;;4424012;32;19948;-77
2022/05/05 06:34:25;;;;;;;;;;;;;;;;;;4434878;32;19996;-75
2022/05/05 06:36:50;;;;;;;;;;;;;;;;;;4437629;32;19937;-76
2022/05/05 06:39:16;;;;;;;;;;;;;;;;;;4436315;32;19937;-76
2022/05/05 06:41:41;;;;;;;;;;;;;;;;;;4424148;32;20002;-76
2022/05/05 06:44:06;;;;;;;;;;;;;;;;;;4422416;32;19933;-77
2022/05/05 06:46:32;;;;;;;;;;;;;;;;;;4423510;32;19976;-75
2022/05/05 06:48:57;;;;;;;;;;;;;;;;;;4425055;32;19975;-75
2022/05/05 06:51:22;;;;;;;;;;;;;;;;;;4431521;32;19959;-75
2022/05/05 06:53:47;;;;;;;;;;;;;;;;;;4424049;32;19933;-76
2022/05/05 06:56:12;;;;;;;;;;;;;;;;;;4430327;32;19983;-73
2022/05/05 06:58:37;;;;;;;;;;;;;;;;;;4436131;32;19936;-76
2022/05/05 07:03:46;;;;;;;;;;;;;;;;;;4424138;32;19940;-75
2022/05/05 07:06:11;;;;;;;;;;;;;;;;;;4423863;32;20015;-77
2022/05/05 07:11:21;;;;;;;;;;;;;;;;;;4423243;32;19944;-75
2022/05/05 07:13:46;;;;;;;;;;;;;;;;;;4437366;32;19937;-75
2022/05/05 07:16:11;;;;;;;;;;;;;;;;;;4435327;32;19984;-76
2022/05/05 07:18:36;;;;;;;;;;;;;;;;;;4429109;32;19956;-76
2022/05/05 07:21:01;;;;;;;;;;;;;;;;;;4437670;32;19933;-77
2022/05/05 07:23:26;;;;;;;;;;;;;;;;;;4436288;32;20005;-76
2022/05/05 07:25:51;;;;;;;;;;;;;;;;;;4432309;32;19933;-77
2022/05/05 07:28:16;;;;;;;;;;;;;;;;;;4438226;32;19944;-77
2022/05/05 07:30:41;;;;;;;;;;;;;;;;;;4423265;32;20343;-77
2022/05/05 07:33:07;;;;;;;;;;;;;;;;;;4422529;32;20302;-75
2022/05/05 07:35:32;;;;;;;;;;;;;;;;;;4421576;32;19937;-76
2022/05/05 07:37:58;;;;;;;;;;;;;;;;;;4432193;32;19932;-75
2022/05/05 07:40:23;;;;;;;;;;;;;;;;;;4421312;32;20340;-77
2022/05/05 07:42:48;;;;;;;;;;;;;;;;;;4421888;32;20294;-76
2022/05/05 07:45:13;;;;;;;;;;;;;;;;;;4435053;32;19963;-76
2022/05/05 07:47:39;;;;;;;;;;;;;;;;;;4436975;32;19937;-76
2022/05/05 07:50:04;;;;;;;;;;;;;;;;;;4436740;32;19962;-77
2022/05/05 07:52:29;;;;;;;;;;;;;;;;;;4436460;32;19947;-76
2022/05/05 07:54:54;;;;;;;;;;;;;;;;;;4434877;32;19941;-77
2022/05/05 07:57:20;;;;;;;;;;;;;;;;;;4436296;32;20327;-75
2022/05/05 07:59:45;;;;;;;;;;;;;;;;;;4423131;32;19959;-76
2022/05/05 08:02:16;;;;;;;;;;;;;;;;;;4421249;32;19967;-76
2022/05/05 08:04:41;;;;;;;;;;;;;;;;;;4419838;32;20028;-76
2022/05/05 08:07:07;;;;;;;;;;;;;;;;;;4421356;32;19933;-76
2022/05/05 08:09:32;;;;;;;;;;;;;;;;;;4421505;32;19996;-76
2022/05/05 08:11:59;;;;;;;;;;;;;;;;;;4426107;32;20332;-77
2022/05/05 08:14:24;;;;;;;;;;;;;;;;;;4436813;32;20045;-77
2022/05/05 08:16:50;;;;;;;;;;;;;;;;;;4436364;32;20311;-78
2022/05/05 08:19:15;;;;;;;;;;;;;;;;;;4435704;32;19932;-76
2022/05/05 08:21:40;;;;;;;;;;;;;;;;;;4427936;32;19959;-77
2022/05/05 08:29:33;;;;;;;;;;;;;;;;;;4426076;32;19951;-75
2022/05/05 08:31:58;;;;;;;;;;;;;;;;;;4436553;32;19949;-75
2022/05/05 08:34:23;;;;;;;;;;;;;;;;;;4436788;32;20332;-75
2022/05/05 08:36:49;;;;;;;;;;;;;;;;;;4432871;32;19994;-73
2022/05/05 08:39:14;;;;;;;;;;;;;;;;;;4425082;32;19941;-76
2022/05/05 08:41:40;;;;;;;;;;;;;;;;;;4421019;32;19938;-73
2022/05/05 08:44:05;;;;;;;;;;;;;;;;;;4419608;32;20282;-77
2022/05/05 08:46:30;;;;;;;;;;;;;;;;;;4430914;32;19944;-77
2022/05/05 08:48:55;;;;;;;;;;;;;;;;;;4436162;32;19937;-78
2022/05/05 08:51:20;;;;;;;;;;;;;;;;;;4423193;32;19941;-75
2022/05/05 08:53:45;;;;;;;;;;;;;;;;;;4420552;32;19941;-76
2022/05/05 08:56:11;;;;;;;;;;;;;;;;;;4423415;32;20275;-76
2022/05/05 08:58:36;;;;;;;;;;;;;;;;;;4426581;32;20340;-76
2022/05/05 09:01:01;;;;;;;;;;;;;;;;;;4425827;32;19937;-76
2022/05/05 09:03:26;;;;;;;;;;;;;;;;;;4436450;32;19971;-76
2022/05/05 09:05:51;;;;;;;;;;;;;;;;;;4434517;32;20034;-76
2022/05/05 09:08:17;;;;;;;;;;;;;;;;;;4420136;32;19933;-77
2022/05/05 09:10:42;;;;;;;;;;;;;;;;;;4420927;32;19989;-76
2022/05/05 09:13:07;;;;;;;;;;;;;;;;;;4421384;32;19964;-78
2022/05/05 09:15:33;;;;;;;;;;;;;;;;;;4420986;32;19961;-75
2022/05/05 09:17:58;;;;;;;;;;;;;;;;;;4420871;32;20297;-76
2022/05/05 09:20:23;;;;;;;;;;;;;;;;;;4420347;32;19948;-76
2022/05/05 09:22:48;;;;;;;;;;;;;;;;;;4425350;32;19940;-76
2022/05/05 09:25:14;;;;;;;;;;;;;;;;;;4435578;32;20510;-77
2022/05/05 09:27:39;;;;;;;;;;;;;;;;;;4437282;32;19940;-77
2022/05/05 09:30:04;;;;;;;;;;;;;;;;;;4435531;32;19932;-76
2022/05/05 09:32:29;;;;;;;;;;;;;;;;;;4435599;32;20370;-78
2022/05/05 09:34:54;;;;;;;;;;;;;;;;;;4427914;32;19937;-78
2022/05/05 09:37:19;;;;;;;;;;;;;;;;;;4433229;32;19941;-76
2022/05/05 09:39:44;;;;;;;;;;;;;;;;;;4434359;32;20237;-76
2022/05/05 09:42:10;;;;;;;;;;;;;;;;;;4433619;32;19933;-76
2022/05/05 09:44:42;;;;;;;;;;;;;;;;;;4432998;32;19959;-76
2022/05/05 09:47:08;;;;;;;;;;;;;;;;;;4423719;32;19952;-76
2022/05/05 09:49:44;;;;;;;;;;;;;;;;;;4421049;32;19953;-78
2022/05/05 09:57:44;;;;;;;;;;;;;;;;;;4434505;32;19956;-78
2022/05/05 10:05:37;;;;;;;;;;;;;;;;;;4438004;32;19944;-78
2022/05/05 10:08:02;;;;;;;;;;;;;;;;;;4424916;32;19949;-78
2022/05/05 10:10:27;;;;;;;;;;;;;;;;;;4427606;32;20311;-79
2022/05/05 10:12:53;;;;;;;;;;;;;;;;;;4437905;32;19948;-78
2022/05/05 10:15:18;;;;;;;;;;;;;;;;;;4434752;32;19956;-78
2022/05/05 10:17:43;;;;;;;;;;;;;;;;;;4423244;32;19934;-80
2022/05/05 10:20:11;;;;;;;;;;;;;;;;;;4429899;32;19989;-78
2022/05/05 10:22:36;;;;;;;;;;;;;;;;;;4433672;32;19955;-78
2022/05/05 10:25:01;;;;;;;;;;;;;;;;;;4436129;32;19985;-78
2022/05/05 10:27:26;;;;;;;;;;;;;;;;;;4421199;32;20280;-77
2022/05/05 10:29:52;;;;;;;;;;;;;;;;;;4426952;32;19929;-77
2022/05/05 10:32:17;;;;;;;;;;;;;;;;;;4425188;32;20255;-78
2022/05/05 10:34:45;;;;;;;;;;;;;;;;;;4431658;32;19973;-77
2022/05/05 10:37:10;;;;;;;;;;;;;;;;;;4434333;32;20005;-78
2022/05/05 10:39:35;;;;;;;;;;;;;;;;;;4436138;32;20011;-78
2022/05/05 10:42:00;;;;;;;;;;;;;;;;;;4429199;32;19974;-77
2022/05/05 10:44:25;;;;;;;;;;;;;;;;;;4436733;32;19933;-78
2022/05/05 10:46:51;;;;;;;;;;;;;;;;;;4425366;32;20333;-79
2022/05/05 10:49:16;;;;;;;;;;;;;;;;;;4432886;32;19932;-77
2022/05/05 10:51:43;;;;;;;;;;;;;;;;;;4429929;32;19979;-78
2022/05/05 10:54:08;;;;;;;;;;;;;;;;;;4433085;32;20359;-79
2022/05/05 10:56:41;;;;;;;;;;;;;;;;;;4438719;32;20293;-78
2022/05/05 10:59:06;;;;;;;;;;;;;;;;;;4433114;32;19933;-79
2022/05/05 11:01:33;;;;;;;;;;;;;;;;;;4423494;32;19998;-79
2022/05/05 11:03:59;;;;;;;;;;;;;;;;;;4422601;32;19988;-78
2022/05/05 11:06:28;;;;;;;;;;;;;;;;;;4432255;32;19974;-79
2022/05/05 11:08:53;;;;;;;;;;;;;;;;;;4436922;32;19951;-79
2022/05/05 11:21:31;;;;;;;;;;;;;;;;;;4436305;32;19998;-79
2022/05/05 11:22:15;;;;;;;;;;;;;;;;;;4423167;32;19979;-79
2022/05/05 11:24:44;;;;;;;;;;;;;;;;;;4437728;32;19934;-78
2022/05/05 11:27:10;;;;;;;;;;;;;;;;;;4436114;32;19933;-78
2022/05/05 11:29:35;;;;;;;;;;;;;;;;;;4430460;32;19959;-79
2022/05/05 11:32:00;;;;;;;;;;;;;;;;;;4422428;32;19963;-78
2022/05/05 11:34:27;;;;;;;;;;;;;;;;;;4420566;32;19949;-78
2022/05/05 11:36:52;;;;;;;;;;;;;;;;;;4434135;32;20053;-79
2022/05/05 11:39:17;;;;;;;;;;;;;;;;;;4436455;32;20318;-78
2022/05/05 11:41:42;;;;;;;;;;;;;;;;;;4433423;32;19933;-78
2022/05/05 11:44:20;;;;;;;;;;;;;;;;;;4429822;32;20307;-79
2022/05/05 11:46:53;;;;;;;;;;;;;;;;;;4433503;32;19941;-79
2022/05/05 11:49:18;;;;;;;;;;;;;;;;;;4428680;32;19967;-78
2022/05/05 11:51:43;;;;;;;;;;;;;;;;;;4432659;32;20330;-78
2022/05/05 11:54:08;;;;;;;;;;;;;;;;;;4423826;32;19969;-79
2022/05/05 11:56:33;;;;;;;;;;;;;;;;;;4421480;32;19937;-78
2022/05/05 12:01:43;;;;;;;;;;;;;;;;;;4422173;32;19979;-79
2022/05/05 12:04:08;;;;;;;;;;;;;;;;;;4421911;32;19941;-78
2022/05/05 12:06:34;;;;;;;;;;;;;;;;;;4422790;32;19937;-78
2022/05/05 12:08:59;;;;;;;;;;;;;;;;;;4435674;32;19928;-79
2022/05/05 12:11:24;;;;;;;;;;;;;;;;;;4437450;32;19936;-80
2022/05/05 12:13:49;;;;;;;;;;;;;;;;;;4435020;32;20371;-79
2022/05/05 12:16:16;;;;;;;;;;;;;;;;;;4436252;32;20332;-78
2022/05/05 12:18:42;;;;;;;;;;;;;;;;;;4436028;32;20232;-74
2022/05/05 12:21:07;;;;;;;;;;;;;;;;;;4437412;32;19966;-79
2022/05/05 12:23:33;;;;;;;;;;;;;;;;;;4436744;32;19944;-79
2022/05/05 12:25:59;;;;;;;;;;;;;;;;;;4436641;32;19939;-79
2022/05/05 12:28:29;;;;;;;;;;;;;;;;;;4434976;32;19944;-78
2022/05/05 12:30:54;;;;;;;;;;;;;;;;;;4436624;32;19988;-77
2022/05/05 12:33:19;;;;;;;;;;;;;;;;;;4436977;32;19933;-78
2022/05/05 12:35:44;;;;;;;;;;;;;;;;;;4435994;32;19945;-78
2022/05/05 12:38:10;;;;;;;;;;;;;;;;;;4436289;32;19959;-79
2022/05/05 12:40:37;;;;;;;;;;;;;;;;;;4436019;32;19948;-79
2022/05/05 12:43:02;;;;;;;;;;;;;;;;;;4436057;32;20314;-79
2022/05/05 12:45:27;;;;;;;;;;;;;;;;;;4436267;32;20280;-79
2022/05/05 12:47:52;;;;;;;;;;;;;;;;;;4435911;32;20311;-77
2022/05/05 12:50:17;;;;;;;;;;;;;;;;;;4436126;32;19947;-78
2022/05/05 13:01:07;;;;;;;;;;;;;;;;;;4421598;32;20338;-78
2022/05/05 13:03:33;;;;;;;;;;;;;;;;;;4420856;32;20035;-78
2022/05/05 13:05:58;;;;;;;;;;;;;;;;;;4420929;32;19970;-79
2022/05/05 13:08:23;;;;;;;;;;;;;;;;;;4420946;32;20002;-78
2022/05/05 13:10:48;;;;;;;;;;;;;;;;;;4422048;32;19953;-79
2022/05/05 13:13:21;;;;;;;;;;;;;;;;;;4421098;32;19992;-80
2022/05/05 13:15:46;;;;;;;;;;;;;;;;;;4438022;32;19978;-76
2022/05/05 13:18:11;;;;;;;;;;;;;;;;;;4452267;32;19936;-77
2022/05/05 13:20:36;;;;;;;;;;;;;;;;;;4450140;32;19944;-78
2022/05/05 13:23:01;;;;;;;;;;;;;;;;;;4451356;32;20241;-78
2022/05/05 13:25:27;;;;;;;;;;;;;;;;;;4451585;32;20278;-78
2022/05/05 13:27:52;;;;;;;;;;;;;;;;;;4451548;32;19972;-78
2022/05/05 13:30:17;;;;;;;;;;;;;;;;;;4441222;32;19940;-79
2022/05/05 13:32:43;;;;;;;;;;;;;;;;;;4438753;32;19981;-77
2022/05/05 13:35:08;;;;;;;;;;;;;;;;;;4440101;32;20239;-78
2022/05/05 13:37:33;;;;;;;;;;;;;;;;;;4438845;32;19984;-78
2022/05/05 13:39:58;;;;;;;;;;;;;;;;;;4438778;32;19945;-78
2022/05/05 13:42:23;;;;;;;;;;;;;;;;;;4439188;32;20273;-77
2022/05/05 13:44:48;;;;;;;;;;;;;;;;;;4439012;32;19973;-78
2022/05/05 13:47:14;;;;;;;;;;;;;;;;;;4446400;32;19940;-77
2022/05/05 13:49:39;;;;;;;;;;;;;;;;;;4454451;32;19936;-77
2022/05/05 13:52:04;;;;;;;;;;;;;;;;;;4453847;32;19940;-76
2022/05/05 13:54:32;;;;;;;;;;;;;;;;;;4453439;32;19932;-78
2022/05/05 13:56:58;;;;;;;;;;;;;;;;;;4446674;32;20340;-78
2022/05/05 13:59:23;;;;;;;;;;;;;;;;;;4437664;32;20305;-77
2022/05/05 14:01:48;;;;;;;;;;;;;;;;;;4438965;32;19932;-79
2022/05/05 14:04:13;;;;;;;;;;;;;;;;;;4438733;32;19933;-79
2022/05/05 14:06:38;;;;;;;;;;;;;;;;;;4438925;32;19937;-77
2022/05/05 14:14:32;;;;;;;;;;;;;;;;;;4438525;32;20247;-78
2022/05/05 14:16:57;;;;;;;;;;;;;;;;;;4438596;32;19937;-78
2022/05/05 14:19:22;;;;;;;;;;;;;;;;;;4438912;32;19982;-79
2022/05/05 14:21:47;;;;;;;;;;;;;;;;;;4438120;32;19949;-78
2022/05/05 14:24:12;;;;;;;;;;;;;;;;;;4438208;32;20043;-78
2022/05/05 14:26:38;;;;;;;;;;;;;;;;;;4438494;32;19985;-79
2022/05/05 14:29:03;;;;;;;;;;;;;;;;;;4437792;32;19937;-78
2022/05/05 14:31:29;;;;;;;;;;;;;;;;;;4438278;32;19990;-78
2022/05/05 14:33:54;;;;;;;;;;;;;;;;;;4438434;32;20220;-76
2022/05/05 14:36:19;;;;;;;;;;;;;;;;;;4438051;32;19937;-78
2022/05/05 14:38:44;;;;;;;;;;;;;;;;;;4436905;32;19967;-79
2022/05/05 14:41:09;;;;;;;;;;;;;;;;;;4427246;32;19933;-78
2022/05/05 14:43:34;;;;;;;;;;;;;;;;;;4429418;32;19974;-77
2022/05/05 14:45:59;;;;;;;;;;;;;;;;;;4430350;32;20278;-78
2022/05/05 14:48:25;;;;;;;;;;;;;;;;;;4438880;32;19981;-78
2022/05/05 14:50:50;;;;;;;;;;;;;;;;;;4437049;32;19944;-78
2022/05/05 14:53:15;;;;;;;;;;;;;;;;;;4437386;32;19968;-77
2022/05/05 14:55:40;;;;;;;;;;;;;;;;;;4437839;32;20342;-78
2022/05/05 14:58:06;;;;;;;;;;;;;;;;;;4437491;32;19949;-78
2022/05/05 15:00:31;;;;;;;;;;;;;;;;;;4436810;32;19937;-77
2022/05/05 15:02:56;;;;;;;;;;;;;;;;;;4435180;32;20300;-78
2022/05/05 15:05:22;;;;;;;;;;;;;;;;;;4436213;32;19988;-77
2022/05/05 15:07:47;;;;;;;;;;;;;;;;;;4440230;32;20003;-77
2022/05/05 15:10:12;;;;;;;;;;;;;;;;;;4438744;32;19972;-76
2022/05/05 15:12:46;;;;;;;;;;;;;;;;;;4434985;32;19937;-77
2022/05/05 15:15:11;;;;;;;;;;;;;;;;;;4437865;32;19964;-77
2022/05/05 15:17:36;;;;;;;;;;;;;;;;;;4437266;32;19941;-78
2022/05/05 15:20:01;;;;;;;;;;;;;;;;;;4437082;32;19967;-79
2022/05/05 15:22:26;;;;;;;;;;;;;;;;;;4437933;32;19951;-78
2022/05/05 15:25:11;;;;;;;;;;;;;;;;;;4438015;32;19984;-78
2022/05/05 15:27:36;;;;;;;;;;;;;;;;;;4436190;32;19951;-77
2022/05/05 15:30:01;;;;;;;;;;;;;;;;;;4434716;32;20277;-76
2022/05/05 15:32:29;;;;;;;;;;;;;;;;;;4425993;32;19952;-78
2022/05/05 15:34:55;;;;;;;;;;;;;;;;;;4436970;32;19937;-78
2022/05/05 15:37:20;;;;;;;;;;;;;;;;;;4437797;32;20040;-78
2022/05/05 15:39:45;;;;;;;;;;;;;;;;;;4433906;32;20367;-77
2022/05/05 15:42:10;;;;;;;;;;;;;;;;;;4423797;32;19937;-72
2022/05/05 15:44:35;;;;;;;;;;;;;;;;;;4431554;32;19940;-77
2022/05/05 15:47:00;;;;;;;;;;;;;;;;;;4421530;32;20323;-77
2022/05/05 15:49:25;;;;;;;;;;;;;;;;;;4428346;32;19933;-77
2022/05/05 15:51:50;;;;;;;;;;;;;;;;;;4436142;32;19963;-73
2022/05/05 15:54:15;;;;;;;;;;;;;;;;;;4425965;32;19945;-75
2022/05/05 15:56:41;;;;;;;;;;;;;;;;;;4433656;32;20355;-78
2022/05/05 15:59:06;;;;;;;;;;;;;;;;;;4434931;32;20311;-75
2022/05/05 16:01:31;;;;;;;;;;;;;;;;;;4426978;32;19941;-76
2022/05/05 16:03:57;;;;;;;;;;;;;;;;;;4424576;32;19979;-75
2022/05/05 16:06:22;;;;;;;;;;;;;;;;;;4435779;32;19976;-76
2022/05/05 16:08:47;;;;;;;;;;;;;;;;;;4435958;32;19969;-77
2022/05/05 16:11:12;;;;;;;;;;;;;;;;;;4430174;32;19945;-77
2022/05/05 16:13:38;;;;;;;;;;;;;;;;;;4423184;32;19984;-77
2022/05/05 16:16:03;;;;;;;;;;;;;;;;;;4428652;32;20334;-77
2022/05/05 16:18:28;;;;;;;;;;;;;;;;;;4424711;32;20386;-76
2022/05/05 16:20:54;;;;;;;;;;;;;;;;;;4422537;32;20369;-76
2022/05/05 16:23:22;;;;;;;;;;;;;;;;;;4421843;32;20353;-76
2022/05/05 16:31:19;;;;;;;;;;;;;;;;;;4429684;32;20290;-76
2022/05/05 16:33:44;;;;;;;;;;;;;;;;;;4421292;32;20282;-75
2022/05/05 16:36:09;;;;;;;;;;;;;;;;;;4426178;32;19963;-75
2022/05/05 16:38:35;;;;;;;;;;;;;;;;;;4419275;32;19953;-76
2022/05/05 16:41:00;;;;;;;;;;;;;;;;;;4419195;32;19933;-76
2022/05/05 16:43:25;;;;;;;;;;;;;;;;;;4444362;32;19943;-76
2022/05/05 16:45:50;;;;;;;;;;;;;;;;;;4438822;32;19944;-76
2022/05/05 16:48:15;;;;;;;;;;;;;;;;;;4430757;32;19959;-76
2022/05/05 16:50:40;;;;;;;;;;;;;;;;;;4429171;32;19968;-75
2022/05/05 16:53:05;;;;;;;;;;;;;;;;;;4406098;32;19960;-76
2022/05/05 16:55:31;;;;;;;;;;;;;;;;;;4405888;32;20004;-76
2022/05/05 16:57:58;;;;;;;;;;;;;;;;;;4406112;32;19933;-76
2022/05/05 17:00:26;;;;;;;;;;;;;;;;;;4405261;32;19979;-77
2022/05/05 17:02:51;;;;;;;;;;;;;;;;;;4408551;32;19941;-76
2022/05/05 17:05:18;;;;;;;;;;;;;;;;;;4420476;32;19979;-77
2022/05/05 17:07:44;;;;;;;;;;;;;;;;;;4419666;32;20002;-77
2022/05/05 17:10:12;;;;;;;;;;;;;;;;;;4417413;32;20352;-77
2022/05/05 17:12:37;;;;;;;;;;;;;;;;;;4415256;32;19961;-76
2022/05/05 17:15:02;;;;;;;;;;;;;;;;;;4405836;32;19929;-77
2022/05/05 17:17:27;;;;;;;;;;;;;;;;;;4406898;32;19933;-72
2022/05/05 17:19:52;;;;;;;;;;;;;;;;;;4405723;32;19933;-77
2022/05/05 17:22:17;;;;;;;;;;;;;;;;;;4405453;32;20039;-77
2022/05/05 17:24:45;;;;;;;;;;;;;;;;;;4406267;32;20289;-76
2022/05/05 17:27:10;;;;;;;;;;;;;;;;;;4405339;32;19984;-78
2022/05/05 17:29:35;;;;;;;;;;;;;;;;;;4406249;32;19995;-77
2022/05/05 17:32:00;;;;;;;;;;;;;;;;;;4405444;32;19995;-75
2022/05/05 17:34:25;;;;;;;;;;;;;;;;;;4405569;32;19952;-78
2022/05/05 17:36:51;;;;;;;;;;;;;;;;;;4405676;32;19938;-78
2022/05/05 17:39:16;;;;;;;;;;;;;;;;;;4405137;32;19971;-79
2022/05/05 17:41:50;;;;;;;;;;;;;;;;;;4416506;32;20234;-75
2022/05/05 17:52:27;;;;;;;;;;;;;;;;;;4417940;32;20351;-78
2022/05/05 17:54:52;;;;;;;;;;;;;;;;;;4435420;32;19968;-77